Aérodrome :
LOGIN :

S'inscrire | Disclaimer

   EN    FR    IT 

 










Légende :    VFR   VFR Marginal   IFR   IFR Intensif   IFR Très Intensif
Visi : 
Plafond : 
>= 8 km
>= 3000ft
5 à 8 km
1000 à 3000 ft
1500m à 5 km
500 à 1000 ft
800 à 1500m
200 à 500 ft
< 800m
< 200 ft
Symboles :   Orages  Brouillard  Fortes neiges  Fortes précipitations  Vent > 20 kt
SIGMETs :   Divers  Orages  Givrage  Turbulence  Onde Orograph.  Cendres Volcan.







- Altitude de l'aérodrome : 157 ft
- Code IATA : LIL
- Voir les cartes d'approche


LFQQ - Lille Lesquin

DERNIER METAR :
  • 260530Z AUTO 28005KT CAVOK 02/01 Q1013 TEMPO 34015G25KT 4000 SHRA BKN020CB

METARs EXPIRÉS :
  • 260500Z AUTO 29003KT 9999 BKN034 01/00 Q1012 TEMPO 4000 SHRA BKN013 BKN030CB
  • 260430Z AUTO 27003KT CAVOK 01/M00 Q1012 TEMPO 4000 SHRA BKN013 BKN030CB
  • 260400Z AUTO 29005KT 9999 FEW026 02/00 Q1012 TEMPO 4000 SHRA BKN013 BKN030CB
  • 260330Z AUTO 27004KT 9999 FEW045 BKN058 BKN068 03/01 Q1012 TEMPO 4000 SHRA BKN013 BKN030CB
  • 260300Z AUTO 31005KT 9999 SCT027 BKN032 BKN041 03/01 Q1012 TEMPO 4000 SHRA BKN013 BKN030CB

TAF TAF LFQQ
Valide du 26 à 06h jusqu'au 27 à 12h UTC


260500Z 2606/2712 29005KT 9999 BKN020
TEMPO 2606/2616 4000 SHRA BKN020CB
PROB30
TEMPO 2606/2616 VRB20G30KT 2000 TSRAGS BKN020CB
PROB30
TEMPO 2710/2712 5000 SHRA BKN040TCU
ATIS : +33 3 20 16 19 54
Pas de NOTAMs connus pour ce terrain.



MET'MAP, la Météo Aéronautique d'un coup d'oeil ! - Copyright ORBIFLY Décembre 2007 - Disclaimer

ORBIFLY MET'MAP TEAM :

Programmation & Développement : Alexandra Zaïnal
Conception & Développement : Baudouin d'Aumeries
Co-Programmation & Développement : Marc-Olivier Méhu
Soutien technique & logistique : Manuel Goepfert

Contact : metmap@orbifly.com




SOURCES & CREDITS :

   NOAA